Time;durP1;ratioP1;P1;durP2;ratioP2;P2;SDS_P1;SDS_P2;PMS_P1;PMS_P2;Temp;Humidity;BMP_temperature;BMP_pressure;BME280_temperature;BME280_humidity;BME280_pressure;Samples;Min_cycle;Max_cycle;Signal;HPM_P1;HPM_P2
2022/05/28 00:01:46;;;;;;;;;5.00;5.00;;;;;-142.59;100.00;56100.38;5028356;28;49767;-69
2022/05/28 00:04:13;;;;;;;;;5.75;5.25;;;;;-142.59;100.00;56100.38;5030047;28;50428;-72
2022/05/28 00:06:38;;;;;;;;;7.00;6.00;;;;;-142.59;100.00;56100.38;5020333;28;50030;-73
2022/05/28 00:09:04;;;;;;;;;9.75;8.00;;;;;-142.59;100.00;56100.38;5025518;28;49860;-70
2022/05/28 00:11:35;;;;;;;;;9.00;8.75;;;;;-142.59;100.00;56100.38;5023313;28;49989;-69
2022/05/28 00:14:01;;;;;;;;;5.25;5.25;;;;;-142.59;100.00;56100.38;5021038;28;50435;-70
2022/05/28 00:16:27;;;;;;;;;9.00;7.75;;;;;-142.59;100.00;56100.38;5030571;28;49774;-72
2022/05/28 00:18:53;;;;;;;;;8.00;7.00;;;;;-142.59;100.00;56100.38;5025467;28;49954;-71
2022/05/28 00:21:20;;;;;;;;;6.50;6.50;;;;;-142.59;100.00;56100.38;5022256;28;49770;-70
2022/05/28 00:23:45;;;;;;;;;6.25;6.25;;;;;-142.59;100.00;56100.38;5022258;28;50517;-70
2022/05/28 00:26:12;;;;;;;;;6.50;6.25;;;;;-142.59;100.00;56100.38;5024732;28;49680;-68
2022/05/28 00:28:38;;;;;;;;;6.00;4.00;;;;;-142.59;100.00;56100.38;5019787;28;49869;-69
2022/05/28 00:31:03;;;;;;;;;5.50;5.50;;;;;-142.59;100.00;56100.38;5024409;28;50084;-72
2022/05/28 00:33:32;;;;;;;;;7.75;7.50;;;;;-142.59;100.00;56100.38;5022017;28;49853;-72
2022/05/28 00:35:59;;;;;;;;;9.75;7.75;;;;;-142.59;100.00;56100.38;5025043;28;49831;-69
2022/05/28 00:38:25;;;;;;;;;6.75;6.75;;;;;-142.59;100.00;56100.38;5024144;28;49804;-68
2022/05/28 00:40:54;;;;;;;;;7.50;7.00;;;;;-142.59;100.00;56100.38;5024338;28;51276;-72
2022/05/28 00:43:20;;;;;;;;;6.25;5.00;;;;;-142.59;100.00;56100.38;5022423;28;50437;-72
2022/05/28 00:45:49;;;;;;;;;5.25;5.25;;;;;-142.59;100.00;56100.38;5022768;28;49762;-72
2022/05/28 00:48:26;;;;;;;;;7.00;5.75;;;;;-142.59;100.00;56100.38;5028474;28;49846;-69
2022/05/28 00:50:52;;;;;;;;;9.50;9.50;;;;;-142.59;100.00;56100.38;5027239;28;49849;-72
2022/05/28 00:53:18;;;;;;;;;6.50;5.00;;;;;-142.59;100.00;56100.38;5018099;28;49874;-69
2022/05/28 00:55:43;;;;;;;;;6.75;6.25;;;;;-142.59;100.00;56100.38;5022086;28;49806;-70
2022/05/28 00:58:09;;;;;;;;;6.25;5.00;;;;;-142.59;100.00;56100.38;5023759;28;49915;-71
2022/05/28 01:00:37;;;;;;;;;6.25;6.25;;;;;-142.59;100.00;56100.38;5022215;28;49669;-69
2022/05/28 01:03:35;;;;;;;;;6.75;6.75;;;;;-142.59;100.00;56100.38;5023209;28;50949;-70
2022/05/28 01:06:03;;;;;;;;;7.75;5.25;;;;;-142.59;100.00;56100.38;5022039;28;50267;-69
2022/05/28 01:08:43;;;;;;;;;9.75;7.75;;;;;-142.59;100.00;56100.38;5023524;28;49778;-69
2022/05/28 01:11:31;;;;;;;;;5.25;5.25;;;;;-142.59;100.00;56100.38;5022856;28;49877;-69
2022/05/28 01:14:24;;;;;;;;;5.75;5.75;;;;;-142.59;100.00;56100.38;5020715;28;50865;-69
2022/05/28 01:16:58;;;;;;;;;8.75;6.25;;;;;-142.59;100.00;56100.38;5023181;28;49591;-69
2022/05/28 01:19:30;;;;;;;;;8.25;7.25;;;;;-142.59;100.00;56100.38;5022626;28;49947;-69
2022/05/28 01:22:19;;;;;;;;;10.75;8.00;;;;;-142.59;100.00;56100.38;5027667;28;49966;-70
2022/05/28 01:25:14;;;;;;;;;10.25;7.00;;;;;-142.59;100.00;56100.38;5017727;28;49704;-69
2022/05/28 01:27:48;;;;;;;;;8.25;5.75;;;;;-142.59;100.00;56100.38;5023798;28;49768;-69
2022/05/28 01:30:15;;;;;;;;;7.75;6.75;;;;;-142.59;100.00;56100.38;5029995;28;49778;-68
2022/05/28 01:32:44;;;;;;;;;7.25;4.00;;;;;-142.59;100.00;56100.38;5026977;28;49744;-68
2022/05/28 01:35:12;;;;;;;;;5.00;5.00;;;;;-142.59;100.00;56100.38;5014834;28;50904;-68
2022/05/28 01:37:39;;;;;;;;;8.50;7.50;;;;;-142.59;100.00;56100.38;5026225;28;49807;-68
2022/05/28 01:40:08;;;;;;;;;7.25;7.25;;;;;-142.59;100.00;56100.38;5024186;28;49921;-69
2022/05/28 01:42:37;;;;;;;;;7.00;6.25;;;;;-142.59;100.00;56100.38;5030665;28;49784;-69
2022/05/28 01:45:05;;;;;;;;;11.75;8.50;;;;;-142.59;100.00;56100.38;5019769;28;50338;-68
2022/05/28 01:47:34;;;;;;;;;11.00;9.25;;;;;-142.59;100.00;56100.38;5014861;28;49645;-68
2022/05/28 01:50:03;;;;;;;;;8.25;8.25;;;;;-142.59;100.00;56100.38;5021884;28;49863;-69
2022/05/28 01:52:32;;;;;;;;;13.00;9.25;;;;;-142.59;100.00;56100.38;5027286;28;49843;-69
2022/05/28 01:54:59;;;;;;;;;10.00;10.00;;;;;-142.59;100.00;56100.38;5019893;28;49900;-69
2022/05/28 01:57:24;;;;;;;;;7.75;7.75;;;;;-142.59;100.00;56100.38;5025612;28;49563;-69
2022/05/28 01:59:51;;;;;;;;;10.00;8.25;;;;;-142.59;100.00;56100.38;5022771;28;49975;-69
2022/05/28 02:02:17;;;;;;;;;7.75;7.75;;;;;-142.59;100.00;56100.38;5025452;28;49755;-69
2022/05/28 02:04:45;;;;;;;;;10.50;6.75;;;;;-142.59;100.00;56100.38;5026248;28;50555;-69
2022/05/28 02:07:11;;;;;;;;;8.25;6.75;;;;;-142.59;100.00;56100.38;5019336;28;49741;-69
2022/05/28 02:09:46;;;;;;;;;9.00;8.75;;;;;-142.59;100.00;56100.38;5023271;28;49780;-69
2022/05/28 02:12:40;;;;;;;;;12.00;9.25;;;;;-142.59;100.00;56100.38;5020183;28;49757;-69
2022/05/28 02:15:24;;;;;;;;;9.25;9.25;;;;;-142.59;100.00;56100.38;5018643;28;49880;-69
2022/05/28 02:18:14;;;;;;;;;10.00;8.75;;;;;-142.59;100.00;56100.38;5023220;28;49838;-69
2022/05/28 02:21:07;;;;;;;;;9.00;6.25;;;;;-142.59;100.00;56100.38;5019657;28;49921;-69
2022/05/28 02:23:42;;;;;;;;;5.50;5.50;;;;;-142.59;100.00;56100.38;5027469;28;49909;-68
2022/05/28 02:26:12;;;;;;;;;11.50;8.50;;;;;-142.59;100.00;56100.38;5018318;28;50703;-69
2022/05/28 02:28:39;;;;;;;;;7.00;7.00;;;;;-142.59;100.00;56100.38;5018331;28;51206;-69
2022/05/28 02:31:14;;;;;;;;;12.00;10.00;;;;;-142.59;100.00;56100.38;5027190;28;49508;-69
2022/05/28 02:33:40;;;;;;;;;14.00;10.25;;;;;-142.59;100.00;56100.38;5021766;28;49753;-69
2022/05/28 02:36:06;;;;;;;;;9.75;7.75;;;;;-142.59;100.00;56100.38;5021540;28;51283;-69
2022/05/28 02:38:31;;;;;;;;;7.50;7.50;;;;;-142.59;100.00;56100.38;5015002;28;49953;-69
2022/05/28 02:40:57;;;;;;;;;7.00;7.00;;;;;-142.59;100.00;56100.38;5020158;28;49754;-69
2022/05/28 02:43:23;;;;;;;;;11.25;8.00;;;;;-142.59;100.00;56100.38;5019997;28;49711;-69
2022/05/28 02:45:48;;;;;;;;;7.00;7.00;;;;;-142.59;100.00;56100.38;5021302;28;49672;-70
2022/05/28 02:48:14;;;;;;;;;9.75;6.75;;;;;-142.59;100.00;56100.38;5021369;28;49621;-68
2022/05/28 02:50:39;;;;;;;;;12.25;8.25;;;;;-142.59;100.00;56100.38;5023309;28;49912;-69
2022/05/28 02:53:06;;;;;;;;;9.75;7.75;;;;;-142.59;100.00;56100.38;5018393;28;50147;-72
2022/05/28 02:55:32;;;;;;;;;9.75;6.00;;;;;-142.59;100.00;56100.38;5020510;28;49930;-71
2022/05/28 02:57:57;;;;;;;;;10.00;7.00;;;;;-142.59;100.00;56100.38;5026912;28;49599;-69
2022/05/28 03:00:23;;;;;;;;;8.00;7.00;;;;;-142.59;100.00;56100.38;5030424;28;49854;-69
2022/05/28 03:02:49;;;;;;;;;6.75;5.75;;;;;-142.59;100.00;56100.38;5005865;28;50050;-70
2022/05/28 03:05:18;;;;;;;;;6.25;6.25;;;;;-142.59;100.00;56100.38;5023442;28;49818;-73
2022/05/28 03:07:43;;;;;;;;;7.00;7.00;;;;;-142.59;100.00;56100.38;5020841;28;49797;-72
2022/05/28 03:10:11;;;;;;;;;8.25;6.00;;;;;-142.59;100.00;56100.38;5025715;28;49757;-69
2022/05/28 03:12:37;;;;;;;;;7.50;6.25;;;;;-142.59;100.00;56100.38;5026581;28;49683;-72
2022/05/28 03:15:02;;;;;;;;;8.00;6.00;;;;;-142.59;100.00;56100.38;5026431;28;50276;-71
2022/05/28 03:17:28;;;;;;;;;8.50;8.00;;;;;-142.59;100.00;56100.38;5025875;28;49790;-72
2022/05/28 03:19:53;;;;;;;;;11.00;10.00;;;;;-142.59;100.00;56100.38;5012001;28;49835;-70
2022/05/28 03:22:18;;;;;;;;;7.00;7.00;;;;;-142.59;100.00;56100.38;5025495;28;50702;-70
2022/05/28 03:24:43;;;;;;;;;8.00;7.75;;;;;-142.59;100.00;56100.38;5022925;28;51039;-72
2022/05/28 03:27:09;;;;;;;;;12.00;10.75;;;;;-142.59;100.00;56100.38;5022039;28;49890;-73
2022/05/28 03:29:34;;;;;;;;;6.75;6.75;;;;;-142.59;100.00;56100.38;5029125;28;49800;-72
2022/05/28 03:32:00;;;;;;;;;9.25;8.00;;;;;-142.59;100.00;56100.38;5029482;28;49789;-70
2022/05/28 03:34:25;;;;;;;;;13.00;9.50;;;;;-142.59;100.00;56100.38;5028046;28;50522;-71
2022/05/28 03:36:50;;;;;;;;;8.50;8.50;;;;;-142.59;100.00;56100.38;5028642;28;49760;-72
2022/05/28 03:39:16;;;;;;;;;8.75;8.75;;;;;-142.59;100.00;56100.38;5022308;28;50294;-70
2022/05/28 03:41:41;;;;;;;;;8.75;8.75;;;;;-142.59;100.00;56100.38;5033398;28;49788;-72
2022/05/28 03:44:06;;;;;;;;;6.00;5.00;;;;;-142.59;100.00;56100.38;5022630;28;50409;-70
2022/05/28 03:46:35;;;;;;;;;6.25;6.25;;;;;-142.59;100.00;56100.38;5030431;28;49721;-70
2022/05/28 03:49:06;;;;;;;;;10.00;9.25;;;;;-142.59;100.00;56100.38;5024100;28;50142;-69
2022/05/28 03:51:32;;;;;;;;;11.00;9.75;;;;;-142.59;100.00;56100.38;5027307;28;49789;-69
2022/05/28 03:53:57;;;;;;;;;12.25;11.00;;;;;-142.59;100.00;56100.38;5024039;28;50256;-70
2022/05/28 03:56:31;;;;;;;;;11.75;10.25;;;;;-142.59;100.00;56100.38;5016989;28;49835;-70
2022/05/28 03:58:56;;;;;;;;;11.25;10.50;;;;;-142.59;100.00;56100.38;5025696;28;49979;-71
2022/05/28 04:01:21;;;;;;;;;11.25;11.00;;;;;-142.59;100.00;56100.38;5029305;28;50097;-69
2022/05/28 04:03:46;;;;;;;;;14.75;14.50;;;;;-142.59;100.00;56100.38;5021181;28;50443;-69
2022/05/28 04:06:12;;;;;;;;;7.50;7.50;;;;;-142.59;100.00;56100.38;5026470;28;53254;-68
2022/05/28 04:08:39;;;;;;;;;10.50;10.00;;;;;-142.59;100.00;56100.38;5023689;28;49884;-73
2022/05/28 04:11:05;;;;;;;;;11.25;9.75;;;;;-142.59;100.00;56100.38;5029698;28;49696;-69
2022/05/28 04:13:30;;;;;;;;;12.00;11.50;;;;;-142.59;100.00;56100.38;5022713;28;50169;-70
2022/05/28 04:15:56;;;;;;;;;11.50;8.50;;;;;-142.59;100.00;56100.38;5029128;28;49791;-72
2022/05/28 04:18:21;;;;;;;;;11.25;11.25;;;;;-142.59;100.00;56100.38;5025065;28;49764;-70
2022/05/28 04:20:46;;;;;;;;;12.00;12.00;;;;;-142.59;100.00;56100.38;5020882;28;49865;-69
2022/05/28 04:23:11;;;;;;;;;12.25;10.75;;;;;-142.59;100.00;56100.38;5022678;28;52766;-70
2022/05/28 04:25:37;;;;;;;;;8.75;8.75;;;;;-142.59;100.00;56100.38;5025788;28;49814;-69
2022/05/28 04:28:03;;;;;;;;;12.50;10.00;;;;;-142.59;100.00;56100.38;5020122;28;49853;-70
2022/05/28 04:30:28;;;;;;;;;7.50;7.50;;;;;-142.59;100.00;56100.38;5020438;28;50023;-69
2022/05/28 04:32:53;;;;;;;;;15.00;11.50;;;;;-142.59;100.00;56100.38;5022558;28;50477;-70
2022/05/28 04:35:19;;;;;;;;;8.75;8.75;;;;;-142.59;100.00;56100.38;5023352;28;51202;-70
2022/05/28 04:37:44;;;;;;;;;11.25;10.25;;;;;-142.59;100.00;56100.38;5025241;28;50872;-69
2022/05/28 04:40:11;;;;;;;;;8.25;6.25;;;;;-142.59;100.00;56100.38;5022808;28;49782;-71
2022/05/28 04:42:36;;;;;;;;;10.25;10.25;;;;;-142.59;100.00;56100.38;5023680;28;50378;-71
2022/05/28 04:45:03;;;;;;;;;9.50;8.25;;;;;-142.59;100.00;56100.38;5027380;28;49808;-69
2022/05/28 04:47:28;;;;;;;;;10.25;8.25;;;;;-142.59;100.00;56100.38;5029609;28;49721;-72
2022/05/28 04:49:54;;;;;;;;;12.25;11.75;;;;;-142.59;100.00;56100.38;5022615;28;49829;-78
2022/05/28 04:52:20;;;;;;;;;12.75;11.50;;;;;-142.59;100.00;56100.38;5024105;28;50497;-73
2022/05/28 04:54:45;;;;;;;;;11.50;9.00;;;;;-142.59;100.00;56100.38;5016156;28;49705;-72
2022/05/28 04:57:11;;;;;;;;;8.50;8.25;;;;;-142.59;100.00;56100.38;5022967;28;50223;-71
2022/05/28 04:59:36;;;;;;;;;12.75;9.00;;;;;-142.59;100.00;56100.38;5032335;28;49979;-86
2022/05/28 05:02:02;;;;;;;;;7.75;7.25;;;;;-142.59;100.00;56100.38;5016241;28;50520;-78
2022/05/28 05:04:27;;;;;;;;;10.00;10.00;;;;;-142.59;100.00;56100.38;5014462;28;49578;-68
2022/05/28 05:06:52;;;;;;;;;15.25;13.25;;;;;-142.59;100.00;56100.38;5015561;28;49619;-74
2022/05/28 05:09:18;;;;;;;;;10.50;8.25;;;;;-142.59;100.00;56100.38;5022054;28;49744;-88
2022/05/28 05:11:47;;;;;;;;;13.75;12.75;;;;;-142.59;100.00;56100.38;5015370;28;52370;-79
2022/05/28 05:14:12;;;;;;;;;9.25;7.75;;;;;-142.59;100.00;56100.38;5026193;28;49848;-76
2022/05/28 05:16:38;;;;;;;;;11.50;9.50;;;;;-142.59;100.00;56100.38;5023644;28;50016;-78
2022/05/28 05:19:03;;;;;;;;;6.75;6.00;;;;;-142.59;100.00;56100.38;5021316;28;49662;-77
2022/05/28 05:21:28;;;;;;;;;12.00;9.00;;;;;-142.59;100.00;56100.38;5032402;28;49793;-76
2022/05/28 05:23:54;;;;;;;;;12.50;8.75;;;;;-142.59;100.00;56100.38;5028525;28;49800;-76
2022/05/28 05:26:22;;;;;;;;;8.25;8.25;;;;;-142.59;100.00;56100.38;5032346;28;49720;-78
2022/05/28 05:28:48;;;;;;;;;11.75;10.00;;;;;-142.59;100.00;56100.38;5017813;28;49804;-77
2022/05/28 05:31:13;;;;;;;;;11.75;10.00;;;;;-142.59;100.00;56100.38;5014992;28;52564;-78
2022/05/28 05:33:39;;;;;;;;;13.00;11.50;;;;;-142.59;100.00;56100.38;5033097;28;50651;-73
2022/05/28 05:36:05;;;;;;;;;8.50;7.75;;;;;-142.59;100.00;56100.38;5034219;28;49795;-75
2022/05/28 05:38:30;;;;;;;;;9.75;7.00;;;;;-142.59;100.00;56100.38;5022289;28;49690;-77
2022/05/28 05:40:55;;;;;;;;;15.25;12.50;;;;;-142.59;100.00;56100.38;5030775;28;51702;-70
2022/05/28 05:43:21;;;;;;;;;11.25;9.25;;;;;-142.59;100.00;56100.38;5025881;28;49824;-69
2022/05/28 05:45:54;;;;;;;;;11.25;11.25;;;;;-142.59;100.00;56100.38;5029947;28;49821;-73
2022/05/28 05:48:20;;;;;;;;;9.00;8.50;;;;;-142.59;100.00;56100.38;5025332;28;50153;-76
2022/05/28 05:50:46;;;;;;;;;14.00;12.00;;;;;-142.59;100.00;56100.38;5013196;28;49858;-67
2022/05/28 05:53:11;;;;;;;;;11.25;9.50;;;;;-142.59;100.00;56100.38;5029024;28;49889;-74
2022/05/28 05:55:36;;;;;;;;;12.25;12.25;;;;;-142.59;100.00;56100.38;5030681;28;50051;-65
2022/05/28 05:58:02;;;;;;;;;12.75;12.75;;;;;-142.59;100.00;56100.38;5032323;28;49865;-72
2022/05/28 06:00:27;;;;;;;;;11.00;10.75;;;;;-142.59;100.00;56100.38;5032266;28;49869;-64
2022/05/28 06:02:52;;;;;;;;;10.50;8.75;;;;;-142.59;100.00;56100.38;5032714;28;49926;-65
2022/05/28 06:05:18;;;;;;;;;10.75;9.00;;;;;-142.59;100.00;56100.38;5032705;28;49982;-64
2022/05/28 06:07:43;;;;;;;;;12.50;12.50;;;;;-142.59;100.00;56100.38;5032508;28;49996;-64
2022/05/28 06:10:10;;;;;;;;;11.25;11.25;;;;;-142.59;100.00;56100.38;5032532;28;50576;-65
2022/05/28 06:12:36;;;;;;;;;12.75;12.50;;;;;-142.59;100.00;56100.38;5032446;28;49753;-64
2022/05/28 06:15:01;;;;;;;;;12.75;12.00;;;;;-142.59;100.00;56100.38;5032622;28;49725;-64
2022/05/28 06:17:26;;;;;;;;;12.25;11.50;;;;;-142.59;100.00;56100.38;5032836;28;50009;-65
2022/05/28 06:19:52;;;;;;;;;11.25;9.50;;;;;-142.59;100.00;56100.38;5032264;28;50529;-66
2022/05/28 06:22:17;;;;;;;;;9.75;8.75;;;;;-142.59;100.00;56100.38;5032264;28;49804;-69
2022/05/28 06:24:42;;;;;;;;;14.50;11.25;;;;;-142.59;100.00;56100.38;5032250;28;50071;-66
2022/05/28 06:27:08;;;;;;;;;12.75;12.25;;;;;-142.59;100.00;56100.38;5032293;28;49797;-67
2022/05/28 06:29:33;;;;;;;;;13.75;11.25;;;;;-142.59;100.00;56100.38;5032277;28;49780;-67
2022/05/28 06:31:58;;;;;;;;;10.75;10.00;;;;;-142.59;100.00;56100.38;5034546;28;49641;-67
2022/05/28 06:34:24;;;;;;;;;15.50;13.00;;;;;-142.59;100.00;56100.38;5036005;28;49770;-67
2022/05/28 06:36:49;;;;;;;;;14.25;12.75;;;;;-142.59;100.00;56100.38;5023589;28;49901;-67
2022/05/28 06:39:15;;;;;;;;;15.00;14.25;;;;;-142.59;100.00;56100.38;5016394;28;50375;-67
2022/05/28 06:41:40;;;;;;;;;15.50;12.25;;;;;-142.59;100.00;56100.38;5016573;28;50213;-68
2022/05/28 06:44:05;;;;;;;;;14.00;13.25;;;;;-142.59;100.00;56100.38;5014996;28;50114;-66
2022/05/28 06:46:31;;;;;;;;;11.75;11.75;;;;;-142.59;100.00;56100.38;5016626;28;49626;-66
2022/05/28 06:48:56;;;;;;;;;14.00;11.25;;;;;-142.59;100.00;56100.38;5016476;28;49817;-67
2022/05/28 06:51:22;;;;;;;;;13.50;12.00;;;;;-142.59;100.00;56100.38;5016431;28;49470;-66
2022/05/28 06:53:48;;;;;;;;;14.25;14.00;;;;;-142.59;100.00;56100.38;5016089;28;50096;-66
2022/05/28 06:56:16;;;;;;;;;7.75;7.75;;;;;-142.59;100.00;56100.38;5016620;28;49705;-66
2022/05/28 06:58:43;;;;;;;;;18.00;16.50;;;;;-142.59;100.00;56100.38;5016125;28;50385;-66
2022/05/28 07:01:09;;;;;;;;;13.75;11.50;;;;;-142.59;100.00;56100.38;5016456;28;50105;-67
2022/05/28 07:03:36;;;;;;;;;17.25;14.25;;;;;-142.59;100.00;56100.38;5016347;28;49853;-66
2022/05/28 07:06:01;;;;;;;;;15.00;10.75;;;;;-142.59;100.00;56100.38;5016501;28;49868;-66
2022/05/28 07:08:27;;;;;;;;;13.75;13.25;;;;;-142.59;100.00;56100.38;4997895;28;50332;-67
2022/05/28 07:10:55;;;;;;;;;11.75;10.75;;;;;-142.59;100.00;56100.38;5016211;28;49638;-66
2022/05/28 07:13:23;;;;;;;;;11.75;10.25;;;;;-142.59;100.00;56100.38;5016364;28;49713;-67
2022/05/28 07:15:48;;;;;;;;;11.50;9.50;;;;;-142.59;100.00;56100.38;5031476;28;49515;-66
2022/05/28 07:18:14;;;;;;;;;16.50;13.25;;;;;-142.59;100.00;56100.38;5035101;28;50351;-66
2022/05/28 07:20:41;;;;;;;;;15.25;14.00;;;;;-142.59;100.00;56100.38;5035217;28;49744;-66
2022/05/28 07:23:28;;;;;;;;;12.00;10.25;;;;;-142.59;100.00;56100.38;5034887;28;49717;-66
2022/05/28 07:26:08;;;;;;;;;13.25;11.50;;;;;-142.59;100.00;56100.38;5035258;28;49827;-66
2022/05/28 07:28:36;;;;;;;;;9.75;9.75;;;;;-142.59;100.00;56100.38;5034996;28;50534;-66
2022/05/28 07:31:09;;;;;;;;;13.00;11.00;;;;;-142.59;100.00;56100.38;5034968;28;49704;-67
2022/05/28 07:33:37;;;;;;;;;9.25;9.00;;;;;-142.59;100.00;56100.38;5022090;28;49871;-67
2022/05/28 07:36:05;;;;;;;;;16.25;14.00;;;;;-142.59;100.00;56100.38;5016133;28;49601;-68
2022/05/28 07:38:31;;;;;;;;;15.00;13.75;;;;;-142.59;100.00;56100.38;5021913;28;50477;-67
2022/05/28 07:41:04;;;;;;;;;14.75;12.50;;;;;-142.59;100.00;56100.38;5015724;28;49816;-70
2022/05/28 07:43:30;;;;;;;;;11.25;11.25;;;;;-142.59;100.00;56100.38;5014649;28;49650;-66
2022/05/28 07:45:55;;;;;;;;;12.00;11.50;;;;;-142.59;100.00;56100.38;5015701;28;49785;-68
2022/05/28 07:48:20;;;;;;;;;15.00;11.75;;;;;-142.59;100.00;56100.38;5015302;28;50750;-67
2022/05/28 07:50:47;;;;;;;;;14.75;10.00;;;;;-142.59;100.00;56100.38;5015144;28;49882;-67
2022/05/28 07:53:13;;;;;;;;;10.75;8.00;;;;;-142.59;100.00;56100.38;5015336;28;49767;-66
2022/05/28 07:55:39;;;;;;;;;11.75;8.75;;;;;-142.59;100.00;56100.38;5015250;28;49964;-67
2022/05/28 07:58:15;;;;;;;;;11.25;11.25;;;;;-142.59;100.00;56100.38;5015212;28;50338;-67
2022/05/28 08:00:43;;;;;;;;;13.00;11.25;;;;;-142.59;100.00;56100.38;5015120;28;49891;-66
2022/05/28 08:03:10;;;;;;;;;14.75;13.50;;;;;-142.59;100.00;56100.38;5015589;28;49881;-68
2022/05/28 08:05:38;;;;;;;;;14.75;14.25;;;;;-142.59;100.00;56100.38;5015056;28;49746;-68
2022/05/28 08:08:03;;;;;;;;;12.25;10.00;;;;;-142.59;100.00;56100.38;5014933;28;52724;-70
2022/05/28 08:10:29;;;;;;;;;17.50;11.25;;;;;-142.59;100.00;56100.38;5015324;28;49745;-71
2022/05/28 08:12:59;;;;;;;;;15.00;12.50;;;;;-142.59;100.00;56100.38;5015114;28;50074;-71
2022/05/28 08:15:25;;;;;;;;;18.50;15.75;;;;;-142.59;100.00;56100.38;5015493;28;49601;-70
2022/05/28 08:17:50;;;;;;;;;17.00;11.00;;;;;-142.59;100.00;56100.38;5015020;28;50237;-68
2022/05/28 08:20:15;;;;;;;;;13.75;12.25;;;;;-142.59;100.00;56100.38;5015064;28;49843;-68
2022/05/28 08:25:24;;;;;;;;;6.50;6.50;;;;;-142.59;100.00;56100.38;5028117;28;49646;-67
2022/05/28 08:27:50;;;;;;;;;9.50;9.00;;;;;-142.59;100.00;56100.38;5016486;28;50452;-68
2022/05/28 08:30:15;;;;;;;;;10.25;10.25;;;;;-142.59;100.00;56100.38;5034077;28;49728;-71
2022/05/28 08:32:40;;;;;;;;;10.50;10.25;;;;;-142.59;100.00;56100.38;5033843;28;49780;-72
2022/05/28 08:35:06;;;;;;;;;14.50;11.00;;;;;-142.59;100.00;56100.38;5034102;28;49750;-65
2022/05/28 08:37:31;;;;;;;;;13.00;10.00;;;;;-142.59;100.00;56100.38;5033617;28;49882;-68
2022/05/28 08:39:56;;;;;;;;;11.00;9.25;;;;;-142.59;100.00;56100.38;5033938;28;49754;-67
2022/05/28 08:42:25;;;;;;;;;9.25;8.00;;;;;-142.59;100.00;56100.38;5033653;28;49500;-68
2022/05/28 08:44:53;;;;;;;;;14.25;10.25;;;;;-142.59;100.00;56100.38;5033993;28;49845;-68
2022/05/28 08:47:27;;;;;;;;;9.75;9.75;;;;;-142.59;100.00;56100.38;5033498;28;50444;-68
2022/05/28 08:49:53;;;;;;;;;10.00;8.50;;;;;-142.59;100.00;56100.38;5033721;28;49831;-68
2022/05/28 08:52:22;;;;;;;;;12.75;10.25;;;;;-142.59;100.00;56100.38;5033547;28;49859;-68
2022/05/28 08:54:57;;;;;;;;;9.75;6.75;;;;;-142.59;100.00;56100.38;5033464;28;49820;-67
2022/05/28 08:57:58;;;;;;;;;9.00;8.25;;;;;-142.59;100.00;56100.38;5033539;28;49785;-68
2022/05/28 09:00:32;;;;;;;;;8.00;8.00;;;;;-142.59;100.00;56100.38;5027810;28;49731;-69
2022/05/28 09:03:11;;;;;;;;;13.00;10.25;;;;;-142.59;100.00;56100.38;5033532;28;49803;-69
2022/05/28 09:05:57;;;;;;;;;7.50;7.50;;;;;-142.59;100.00;56100.38;5033784;28;49772;-69
2022/05/28 09:08:33;;;;;;;;;13.25;11.75;;;;;-142.59;100.00;56100.38;5033010;28;49796;-67
2022/05/28 09:11:06;;;;;;;;;10.50;8.75;;;;;-142.59;100.00;56100.38;5033379;28;49760;-69
2022/05/28 09:13:43;;;;;;;;;10.75;10.00;;;;;-142.59;100.00;56100.38;5033378;28;49802;-67
2022/05/28 09:16:32;;;;;;;;;10.00;9.50;;;;;-142.59;100.00;56100.38;5033515;28;49872;-69
2022/05/28 09:19:05;;;;;;;;;11.75;9.25;;;;;-142.59;100.00;56100.38;5033109;28;49680;-69
2022/05/28 09:21:31;;;;;;;;;9.75;7.00;;;;;-142.59;100.00;56100.38;5033393;28;49708;-69
2022/05/28 09:24:02;;;;;;;;;9.00;7.50;;;;;-142.59;100.00;56100.38;5032891;28;49837;-68
2022/05/28 09:27:01;;;;;;;;;10.50;9.75;;;;;-142.59;100.00;56100.38;5033131;28;49993;-68
2022/05/28 09:29:42;;;;;;;;;7.25;7.25;;;;;-142.59;100.00;56100.38;5032996;28;50598;-70
2022/05/28 09:32:38;;;;;;;;;8.50;6.75;;;;;-142.59;100.00;56100.38;5033037;28;49775;-68
2022/05/28 09:35:27;;;;;;;;;7.50;7.00;;;;;-142.59;100.00;56100.38;5033105;28;49833;-69
2022/05/28 09:38:14;;;;;;;;;9.00;8.00;;;;;-142.59;100.00;56100.38;5033115;28;49812;-69
2022/05/28 09:40:50;;;;;;;;;6.00;6.00;;;;;-142.59;100.00;56100.38;5032876;28;50509;-69
2022/05/28 09:43:15;;;;;;;;;8.00;6.50;;;;;-142.59;100.00;56100.38;5032937;28;49729;-74
2022/05/28 09:46:09;;;;;;;;;9.75;6.50;;;;;-142.59;100.00;56100.38;5032879;28;49741;-72
2022/05/28 09:48:34;;;;;;;;;8.25;7.25;;;;;-142.59;100.00;56100.38;5033022;28;49698;-73
2022/05/28 09:51:00;;;;;;;;;7.75;6.00;;;;;-142.59;100.00;56100.38;5032804;28;50600;-71
2022/05/28 09:56:22;;;;;;;;;8.50;8.50;;;;;-142.59;100.00;56100.38;5029258;28;49736;-74
2022/05/28 09:58:47;;;;;;;;;13.00;8.00;;;;;-142.59;100.00;56100.38;5031608;28;49954;-74
2022/05/28 10:01:18;;;;;;;;;7.50;7.50;;;;;-142.59;100.00;56100.38;5032345;28;51418;-71
2022/05/28 10:06:32;;;;;;;;;8.25;8.25;;;;;-142.59;100.00;56100.38;5031672;28;49800;-72
2022/05/28 10:08:58;;;;;;;;;7.00;7.00;;;;;-142.59;100.00;56100.38;5032506;28;49924;-72
2022/05/28 10:11:24;;;;;;;;;5.25;5.00;;;;;-142.59;100.00;56100.38;5032418;28;49783;-74
2022/05/28 10:13:53;;;;;;;;;7.50;6.25;;;;;-142.59;100.00;56100.38;5032468;28;50348;-72
2022/05/28 10:16:22;;;;;;;;;5.50;5.25;;;;;-142.59;100.00;56100.38;5032607;28;49857;-72
2022/05/28 10:18:55;;;;;;;;;5.50;5.50;;;;;-142.59;100.00;56100.38;5032672;28;49986;-74
2022/05/28 10:21:29;;;;;;;;;6.25;4.25;;;;;-142.59;100.00;56100.38;5013152;28;49603;-84
2022/05/28 10:23:59;;;;;;;;;8.00;5.75;;;;;-142.59;100.00;56100.38;5026773;28;49775;-74
2022/05/28 10:26:31;;;;;;;;;9.25;6.00;;;;;-142.59;100.00;56100.38;5014088;28;49989;-75
2022/05/28 10:29:04;;;;;;;;;5.50;5.00;;;;;-142.59;100.00;56100.38;5013511;28;49768;-73
2022/05/28 10:31:34;;;;;;;;;8.50;7.25;;;;;-142.59;100.00;56100.38;5012043;28;50768;-73
2022/05/28 10:34:00;;;;;;;;;6.25;5.50;;;;;-142.59;100.00;56100.38;5002369;28;49896;-76
2022/05/28 10:36:29;;;;;;;;;5.75;5.75;;;;;-142.59;100.00;56100.38;5012677;28;49868;-74
2022/05/28 10:39:04;;;;;;;;;6.50;5.50;;;;;-142.59;100.00;56100.38;5012944;28;49969;-72
2022/05/28 10:41:31;;;;;;;;;4.75;4.75;;;;;-142.59;100.00;56100.38;4995211;28;51310;-75
2022/05/28 10:43:57;;;;;;;;;4.75;4.00;;;;;-142.59;100.00;56100.38;5012662;28;50108;-72
2022/05/28 10:46:47;;;;;;;;;5.75;4.50;;;;;-142.59;100.00;56100.38;5012807;28;49745;-74
2022/05/28 10:49:21;;;;;;;;;6.50;4.00;;;;;-142.59;100.00;56100.38;5013916;28;49987;-72
2022/05/28 10:52:13;;;;;;;;;7.00;5.75;;;;;-142.59;100.00;56100.38;5025584;28;49926;-72
2022/05/28 10:55:13;;;;;;;;;3.75;3.00;;;;;-142.59;100.00;56100.38;5023911;28;50067;-75
2022/05/28 10:57:44;;;;;;;;;3.00;3.00;;;;;-142.59;100.00;56100.38;5013339;28;50212;-73
2022/05/28 11:00:15;;;;;;;;;3.50;3.50;;;;;-142.59;100.00;56100.38;5031823;28;49634;-72
2022/05/28 11:02:56;;;;;;;;;4.25;3.25;;;;;-142.59;100.00;56100.38;5031076;28;51321;-71
2022/05/28 11:06:00;;;;;;;;;4.00;3.25;;;;;-142.59;100.00;56100.38;5031388;28;49741;-71
2022/05/28 11:08:50;;;;;;;;;4.50;4.50;;;;;-142.59;100.00;56100.38;5030020;28;49730;-70
2022/05/28 11:11:34;;;;;;;;;5.25;4.25;;;;;-142.59;100.00;56100.38;5031587;28;49773;-70
2022/05/28 11:14:21;;;;;;;;;4.00;3.00;;;;;-142.59;100.00;56100.38;5031570;28;49852;-71
2022/05/28 11:17:05;;;;;;;;;8.25;5.50;;;;;-142.59;100.00;56100.38;5028481;28;49641;-73
2022/05/28 11:19:51;;;;;;;;;5.75;5.00;;;;;-142.59;100.00;56100.38;5035062;28;49878;-73
2022/05/28 11:22:22;;;;;;;;;5.00;3.25;;;;;-142.59;100.00;56100.38;5016881;28;49717;-74